Main page
METAR-TAF:

METAR-TAF

Airports :

Shenyang Taoxian International Airport

Shenyang, China

latitude: 41-48N, longitude: 123-24E, elevation: 35 m

Current weather observation

The report was made 28 minutes ago, at 14:00 UTC
Wind 4 kt from the South/Southwest
Temperature -3°C
Humidity 68%
Pressure 1027 hPa
Visibility 10 km or more
no clouds below 1500 m and no cumulonimbus

METAR: ZYTX 221400Z 21002MPS CAVOK M03/M08 Q1027 NOSIG

Time: 22:28 (14:28 UTC)

Forecast

The report was made 7 hours and 18 minutes ago, at 07:10 UTC
Forecast valid from 22 at 12 UTC to 23 at 12 UTC
Wind 8 kt from the West
Visibility: 6000 m
Becoming
from 23 at 00 UTC to 23 at 01 UTC
Wind 10 kt from the South/Southwest

TAF: ZYTX 220710Z 2212/2312 26004MPS 6000 NSC TX06/2306Z TNM06/2220Z BECMG 2300/2301 20005MPS

Weather observations and forecasts of more than 4000 airports (METAR and TAF reports).

The available stations are represented by yellow and red dots on the map.

Hover mouse over dot to see the name of the station.

Then click to see weather observations and forecasts.

To change the map : click on the green buttons with a black cross to zoom in, on the green button with a dash to zoom out, or on the green arrows for adjacent maps.


METAR-TAF: